Time;durP1;ratioP1;P1;durP2;ratioP2;P2;SDS_P1;SDS_P2;PMS_P1;PMS_P2;Temp;Humidity;BMP_temperature;BMP_pressure;BME280_temperature;BME280_humidity;BME280_pressure;Samples;Min_cycle;Max_cycle;Signal;HPM_P1;HPM_P2
2023/10/30 00:01:32;;;;;;;5.32;1.08;;;10.80;99.90;;;;;;5037378;28;20052;-87
2023/10/30 00:03:57;;;;;;;2.67;0.73;;;10.80;99.90;;;;;;5036217;28;20710;-88
2023/10/30 00:06:23;;;;;;;2.88;0.60;;;10.70;99.90;;;;;;5053411;28;20047;-88
2023/10/30 00:08:49;;;;;;;7.03;1.10;;;10.70;99.90;;;;;;5038449;28;20499;-87
2023/10/30 00:11:14;;;;;;;3.67;1.00;;;10.70;99.90;;;;;;5054069;28;20063;-87
2023/10/30 00:13:41;;;;;;;2.05;0.55;;;10.70;99.90;;;;;;5070646;28;20045;-87
2023/10/30 00:16:10;;;;;;;5.53;0.80;;;10.70;99.90;;;;;;5070540;28;20528;-87
2023/10/30 00:18:36;;;;;;;2.92;0.88;;;10.70;99.90;;;;;;5053808;28;20052;-87
2023/10/30 00:21:01;;;;;;;1.88;0.60;;;10.70;99.90;;;;;;5054283;28;20036;-88
2023/10/30 00:23:28;;;;;;;3.45;0.98;;;10.60;99.90;;;;;;5053983;28;20500;-87
2023/10/30 00:25:55;;;;;;;3.28;1.00;;;10.60;99.90;;;;;;5054009;28;20384;-87
2023/10/30 00:28:20;;;;;;;1.00;0.47;;;10.60;99.90;;;;;;5053739;28;20534;-87
2023/10/30 00:30:46;;;;;;;5.22;1.00;;;10.60;99.90;;;;;;5053340;28;20076;-87
2023/10/30 00:33:13;;;;;;;3.35;1.02;;;10.60;99.90;;;;;;5053791;28;20072;-86
2023/10/30 00:35:39;;;;;;;0.77;0.30;;;10.60;99.90;;;;;;5052240;28;20109;-87
2023/10/30 00:38:04;;;;;;;3.53;0.90;;;10.60;99.90;;;;;;5052932;28;20040;-87
2023/10/30 00:40:30;;;;;;;8.10;1.38;;;10.60;99.90;;;;;;5053300;28;20094;-87
2023/10/30 00:42:56;;;;;;;4.85;0.88;;;10.60;99.90;;;;;;5069779;28;20131;-87
2023/10/30 00:45:22;;;;;;;5.07;1.00;;;10.60;99.90;;;;;;5052313;28;20033;-87
2023/10/30 00:47:47;;;;;;;4.22;1.15;;;10.60;99.90;;;;;;5069444;28;20052;-87
2023/10/30 00:50:13;;;;;;;4.85;0.93;;;10.60;99.90;;;;;;5037052;28;20041;-87
2023/10/30 00:52:39;;;;;;;2.30;0.93;;;10.50;99.90;;;;;;5069007;28;20082;-88
2023/10/30 00:55:05;;;;;;;4.88;1.15;;;10.50;99.90;;;;;;5052636;28;20037;-88
2023/10/30 00:57:30;;;;;;;7.63;1.40;;;10.50;99.90;;;;;;5052051;28;20044;-87
2023/10/30 00:59:56;;;;;;;3.45;0.95;;;10.50;99.90;;;;;;5052437;28;20484;-87
2023/10/30 01:02:21;;;;;;;4.43;1.00;;;10.50;99.90;;;;;;5052514;28;20040;-87
2023/10/30 01:04:47;;;;;;;4.88;1.13;;;10.50;99.90;;;;;;5069171;28;20381;-88
2023/10/30 01:07:13;;;;;;;8.48;2.10;;;10.50;99.90;;;;;;5053031;28;20048;-87
2023/10/30 01:09:38;;;;;;;4.15;0.80;;;10.50;99.90;;;;;;5068794;28;20051;-87
2023/10/30 01:12:04;;;;;;;3.05;1.05;;;10.50;99.90;;;;;;5052512;28;20032;-88
2023/10/30 01:14:30;;;;;;;6.60;0.77;;;10.50;99.90;;;;;;5053156;28;20495;-88
2023/10/30 01:16:55;;;;;;;3.03;0.82;;;10.50;99.90;;;;;;5070556;28;20177;-88
2023/10/30 01:19:21;;;;;;;11.40;1.05;;;10.50;99.90;;;;;;5053527;28;20048;-88
2023/10/30 01:21:46;;;;;;;2.28;0.95;;;10.40;99.90;;;;;;5055598;28;20044;-88
2023/10/30 01:24:12;;;;;;;4.63;1.20;;;10.50;99.90;;;;;;5053427;28;20532;-87
2023/10/30 01:26:39;;;;;;;2.03;0.60;;;10.50;99.90;;;;;;5053579;28;20524;-88
2023/10/30 01:29:05;;;;;;;2.03;0.65;;;10.50;99.90;;;;;;5052388;28;20037;-88
2023/10/30 01:31:30;;;;;;;3.65;0.60;;;10.50;99.90;;;;;;5069129;28;20408;-88
2023/10/30 01:33:56;;;;;;;7.50;0.98;;;10.50;99.90;;;;;;5068966;28;20037;-88
2023/10/30 01:36:22;;;;;;;4.13;0.90;;;10.50;99.90;;;;;;5052828;28;20350;-88
2023/10/30 01:38:48;;;;;;;1.77;0.60;;;10.50;99.90;;;;;;5069078;28;20450;-88
2023/10/30 01:41:14;;;;;;;2.28;0.93;;;10.50;99.90;;;;;;5069541;28;20132;-88
2023/10/30 01:43:39;;;;;;;12.35;2.60;;;10.50;99.90;;;;;;5051771;28;20071;-88
2023/10/30 01:46:08;;;;;;;6.90;1.50;;;10.60;99.90;;;;;;5052885;28;20032;-87
2023/10/30 01:48:35;;;;;;;4.97;1.10;;;10.60;99.90;;;;;;5052888;28;20076;-86
2023/10/30 01:51:02;;;;;;;4.35;0.90;;;10.60;99.90;;;;;;5052013;28;20037;-88
2023/10/30 01:53:31;;;;;;;5.70;0.95;;;10.60;99.90;;;;;;5035601;28;20446;-88
2023/10/30 01:55:59;;;;;;;3.72;0.98;;;10.50;99.90;;;;;;5035785;28;20037;-87
2023/10/30 01:58:25;;;;;;;3.75;1.10;;;10.50;99.90;;;;;;5069415;28;20496;-87
2023/10/30 02:00:53;;;;;;;6.32;1.20;;;10.50;99.90;;;;;;5053284;28;20044;-87
2023/10/30 02:03:19;;;;;;;4.03;0.68;;;10.60;99.90;;;;;;5056832;28;20036;-86
2023/10/30 02:05:44;;;;;;;2.33;0.88;;;10.70;99.90;;;;;;5065383;28;20042;-87
2023/10/30 02:08:11;;;;;;;3.08;0.80;;;10.70;99.90;;;;;;5065309;28;20037;-87
2023/10/30 02:10:36;;;;;;;2.28;0.55;;;10.70;99.90;;;;;;5070400;28;20051;-87
2023/10/30 02:13:09;;;;;;;8.52;1.30;;;10.70;99.90;;;;;;5045000;28;20036;-87
2023/10/30 02:15:35;;;;;;;7.13;1.35;;;10.70;99.90;;;;;;5053438;28;20053;-87
2023/10/30 02:18:01;;;;;;;5.25;0.95;;;10.70;99.90;;;;;;5044177;28;20048;-87
2023/10/30 02:20:28;;;;;;;5.90;1.38;;;10.70;99.90;;;;;;5070336;28;20106;-87
2023/10/30 02:22:53;;;;;;;5.80;1.02;;;10.80;99.90;;;;;;5055389;28;20121;-87
2023/10/30 02:25:20;;;;;;;6.43;1.20;;;10.70;99.90;;;;;;5072406;28;20064;-88
2023/10/30 02:27:46;;;;;;;5.00;1.40;;;10.80;99.90;;;;;;5072693;28;20456;-87
2023/10/30 02:30:12;;;;;;;7.50;0.90;;;10.80;99.90;;;;;;5072247;28;20037;-87
2023/10/30 02:32:42;;;;;;;14.38;3.83;;;10.80;99.90;;;;;;5055763;28;20036;-87
2023/10/30 02:35:12;;;;;;;5.15;0.88;;;10.90;99.90;;;;;;5055969;28;20044;-87
2023/10/30 02:37:37;;;;;;;4.75;0.55;;;11.00;99.90;;;;;;5072209;28;20396;-87
2023/10/30 02:40:03;;;;;;;4.55;0.77;;;11.00;99.90;;;;;;5049526;28;20508;-87
2023/10/30 02:42:29;;;;;;;1.58;0.65;;;11.00;99.90;;;;;;5071209;28;20036;-88
2023/10/30 02:44:54;;;;;;;3.88;1.13;;;11.00;99.90;;;;;;5042558;28;20454;-88
2023/10/30 02:47:23;;;;;;;5.30;1.25;;;11.00;99.90;;;;;;5052049;28;20041;-87
2023/10/30 02:49:49;;;;;;;7.18;1.05;;;11.10;99.90;;;;;;5055132;28;20043;-87
2023/10/30 02:52:14;;;;;;;6.07;1.52;;;11.10;99.90;;;;;;5055126;28;20036;-87
2023/10/30 02:54:40;;;;;;;2.15;0.82;;;11.00;99.90;;;;;;5071966;28;20041;-87
2023/10/30 02:57:05;;;;;;;4.68;0.90;;;11.00;99.90;;;;;;5071669;28;20033;-87
2023/10/30 02:59:31;;;;;;;6.30;1.58;;;11.00;99.90;;;;;;5071467;28;20083;-88
2023/10/30 03:01:58;;;;;;;7.25;1.00;;;11.00;99.90;;;;;;5072423;28;20036;-87
2023/10/30 03:04:24;;;;;;;2.30;0.68;;;11.00;99.90;;;;;;5054836;28;20063;-88
2023/10/30 03:06:50;;;;;;;2.80;0.57;;;11.00;99.90;;;;;;5055316;28;20037;-88
2023/10/30 03:09:15;;;;;;;5.15;0.95;;;11.00;99.90;;;;;;5054964;28;20068;-88
2023/10/30 03:11:41;;;;;;;8.15;1.20;;;11.00;99.90;;;;;;5054843;28;20040;-88
2023/10/30 03:14:07;;;;;;;3.45;0.82;;;10.90;99.90;;;;;;5055029;28;20407;-88
2023/10/30 03:16:32;;;;;;;5.15;1.23;;;10.90;99.90;;;;;;5038452;28;20090;-87
2023/10/30 03:18:58;;;;;;;5.93;1.73;;;10.90;99.90;;;;;;5054761;28;20040;-87
2023/10/30 03:21:24;;;;;;;9.02;2.15;;;10.90;99.90;;;;;;5071575;28;20454;-88
2023/10/30 03:23:49;;;;;;;7.13;1.08;;;10.80;99.90;;;;;;5054475;28;20032;-88
2023/10/30 03:26:15;;;;;;;8.23;2.40;;;10.90;99.90;;;;;;5071533;28;20039;-87
2023/10/30 03:28:40;;;;;;;5.68;1.15;;;10.80;99.90;;;;;;5071892;28;20041;-88
2023/10/30 03:31:07;;;;;;;11.32;1.60;;;10.90;99.90;;;;;;5054034;28;20500;-88
2023/10/30 03:33:33;;;;;;;3.75;1.08;;;10.80;99.90;;;;;;5071226;28;21008;-87
2023/10/30 03:35:58;;;;;;;10.32;1.63;;;10.80;99.90;;;;;;5071684;28;20044;-87
2023/10/30 03:38:24;;;;;;;9.18;1.15;;;10.80;99.90;;;;;;5054452;28;20523;-88
2023/10/30 03:40:50;;;;;;;5.03;0.93;;;10.80;99.90;;;;;;5054549;28;20040;-87
2023/10/30 03:43:16;;;;;;;1.77;0.63;;;10.80;99.90;;;;;;5071765;28;20048;-87
2023/10/30 03:45:41;;;;;;;9.07;1.70;;;10.80;99.90;;;;;;5070800;28;20041;-87
2023/10/30 03:48:08;;;;;;;4.70;0.60;;;10.80;99.90;;;;;;5071224;28;20067;-87
2023/10/30 03:50:33;;;;;;;12.13;2.95;;;10.80;99.90;;;;;;5035703;28;20408;-87
2023/10/30 03:52:59;;;;;;;3.63;0.80;;;10.90;99.90;;;;;;5052088;28;20030;-87
2023/10/30 03:55:24;;;;;;;7.20;1.27;;;10.90;99.90;;;;;;5035672;28;20107;-87
2023/10/30 03:57:50;;;;;;;13.35;3.30;;;10.90;99.90;;;;;;5034959;28;20041;-86
2023/10/30 04:00:16;;;;;;;5.05;2.10;;;10.90;99.90;;;;;;5049879;28;20068;-87
2023/10/30 04:02:41;;;;;;;2.70;0.52;;;10.90;99.90;;;;;;5070901;28;20127;-88
2023/10/30 04:05:07;;;;;;;7.63;1.25;;;10.90;99.90;;;;;;5070545;28;20040;-87
2023/10/30 04:07:33;;;;;;;5.90;1.05;;;10.80;99.90;;;;;;5070813;28;20085;-88
2023/10/30 04:09:59;;;;;;;10.05;1.77;;;10.80;99.90;;;;;;5069861;28;20033;-87
2023/10/30 04:12:24;;;;;;;5.30;1.42;;;10.80;99.90;;;;;;5044588;28;20044;-87
2023/10/30 04:14:51;;;;;;;14.68;1.33;;;10.70;99.90;;;;;;5046557;28;20119;-87
2023/10/30 04:17:17;;;;;;;7.88;1.38;;;10.70;99.90;;;;;;5053867;28;20533;-87
2023/10/30 04:19:43;;;;;;;7.03;2.25;;;10.70;99.90;;;;;;5053371;28;20036;-88
2023/10/30 04:22:08;;;;;;;4.53;0.80;;;10.70;99.90;;;;;;5053509;28;20385;-87
2023/10/30 04:24:34;;;;;;;3.50;0.90;;;10.70;99.90;;;;;;5052985;28;20036;-88
2023/10/30 04:27:00;;;;;;;6.38;1.23;;;10.70;99.90;;;;;;5070985;28;20112;-88
2023/10/30 04:29:26;;;;;;;9.32;1.00;;;10.80;99.90;;;;;;5053158;28;20040;-87
2023/10/30 04:31:52;;;;;;;8.93;1.02;;;10.70;99.90;;;;;;5053466;28;20032;-87
2023/10/30 04:34:19;;;;;;;3.72;1.02;;;10.70;99.90;;;;;;5070667;28;20040;-87
2023/10/30 04:36:45;;;;;;;8.25;1.65;;;10.70;99.90;;;;;;5053540;28;20036;-88
2023/10/30 04:39:11;;;;;;;4.50;1.00;;;10.70;99.90;;;;;;5053217;28;20186;-87
2023/10/30 04:41:36;;;;;;;7.57;0.80;;;10.70;99.90;;;;;;5051056;28;20048;-87
2023/10/30 04:44:02;;;;;;;9.68;1.42;;;10.60;99.90;;;;;;5039639;28;20504;-87
2023/10/30 04:46:28;;;;;;;10.75;1.48;;;10.60;99.90;;;;;;5053434;28;20411;-87
2023/10/30 04:48:54;;;;;;;5.65;2.08;;;10.60;99.90;;;;;;5070151;28;20091;-88
2023/10/30 04:51:19;;;;;;;5.95;2.00;;;10.60;99.90;;;;;;5069824;28;20090;-87
2023/10/30 04:53:45;;;;;;;4.65;1.55;;;10.60;99.90;;;;;;5044555;28;20040;-87
2023/10/30 04:56:11;;;;;;;4.47;0.90;;;10.60;99.90;;;;;;5070278;28;20042;-87
2023/10/30 04:58:36;;;;;;;5.20;0.90;;;10.60;99.90;;;;;;5069964;28;20123;-87
2023/10/30 05:01:09;;;;;;;8.10;1.70;;;10.60;99.90;;;;;;5069142;28;20651;-87
2023/10/30 05:03:39;;;;;;;3.42;1.10;;;10.60;99.90;;;;;;5053400;28;20075;-87
2023/10/30 05:06:05;;;;;;;6.00;1.33;;;10.60;99.90;;;;;;5069992;28;20071;-87
2023/10/30 05:08:31;;;;;;;4.90;0.70;;;10.70;99.90;;;;;;5053269;28;20036;-87
2023/10/30 05:10:59;;;;;;;6.72;1.20;;;10.70;99.90;;;;;;5052558;28;20051;-87
2023/10/30 05:13:25;;;;;;;9.35;1.08;;;10.70;99.90;;;;;;5068893;28;20456;-87
2023/10/30 05:15:51;;;;;;;3.65;0.95;;;10.70;99.90;;;;;;5053402;28;20500;-87
2023/10/30 05:18:21;;;;;;;10.55;2.20;;;10.70;99.90;;;;;;5069941;28;20097;-88
2023/10/30 05:20:47;;;;;;;4.28;0.90;;;10.70;99.90;;;;;;5069027;28;20036;-88
2023/10/30 05:23:12;;;;;;;6.45;1.40;;;10.70;99.90;;;;;;5052711;28;20051;-88
2023/10/30 05:25:38;;;;;;;7.18;1.52;;;10.70;99.90;;;;;;5050141;28;20045;-89
2023/10/30 05:28:03;;;;;;;8.45;1.40;;;10.70;99.90;;;;;;5039623;28;20080;-88
2023/10/30 05:30:30;;;;;;;7.63;1.33;;;10.70;99.90;;;;;;5052648;28;20037;-88
2023/10/30 05:32:56;;;;;;;10.88;1.25;;;10.70;99.90;;;;;;5052754;28;20094;-88
2023/10/30 05:35:22;;;;;;;4.63;1.10;;;10.70;99.90;;;;;;5053029;28;20040;-89
2023/10/30 05:37:47;;;;;;;4.38;1.17;;;10.70;99.90;;;;;;5069558;28;20091;-89
2023/10/30 05:40:13;;;;;;;6.78;1.27;;;10.70;99.90;;;;;;5052269;28;20102;-88
2023/10/30 05:42:38;;;;;;;4.85;1.20;;;10.70;99.90;;;;;;5069768;28;20094;-88
2023/10/30 05:45:05;;;;;;;9.05;2.13;;;10.70;99.90;;;;;;5069998;28;20442;-89
2023/10/30 05:47:31;;;;;;;5.20;0.90;;;10.70;99.90;;;;;;5053292;28;20040;-89
2023/10/30 05:49:57;;;;;;;6.70;1.80;;;10.70;99.90;;;;;;5038484;28;20492;-88
2023/10/30 05:52:23;;;;;;;5.15;0.95;;;10.80;99.90;;;;;;5032571;28;20128;-88
2023/10/30 05:54:49;;;;;;;2.40;0.88;;;10.80;99.90;;;;;;5052467;28;20420;-88
2023/10/30 05:57:15;;;;;;;8.43;1.30;;;10.80;99.90;;;;;;5052931;28;20044;-88
2023/10/30 05:59:41;;;;;;;4.85;0.77;;;10.80;99.90;;;;;;5056806;28;20040;-88
2023/10/30 06:02:07;;;;;;;7.78;2.08;;;10.80;99.90;;;;;;5052787;28;20048;-88
2023/10/30 06:04:33;;;;;;;9.30;1.30;;;10.80;99.90;;;;;;5070738;28;20064;-88
2023/10/30 06:06:58;;;;;;;6.28;1.60;;;10.80;99.90;;;;;;5070505;28;20119;-87
2023/10/30 06:09:26;;;;;;;12.93;2.95;;;10.80;99.90;;;;;;5052056;28;20036;-87
2023/10/30 06:11:52;;;;;;;3.97;1.40;;;10.90;99.90;;;;;;5041862;28;20076;-87
2023/10/30 06:14:18;;;;;;;4.78;1.38;;;10.80;99.90;;;;;;5032173;28;20076;-87
2023/10/30 06:16:44;;;;;;;8.90;1.05;;;10.80;99.90;;;;;;5036231;28;20492;-87
2023/10/30 06:19:10;;;;;;;2.90;0.60;;;10.90;99.90;;;;;;5061674;28;20047;-88
2023/10/30 06:21:39;;;;;;;2.83;0.68;;;10.80;99.90;;;;;;5046552;28;20037;-88
2023/10/30 06:24:07;;;;;;;7.50;0.90;;;10.90;99.90;;;;;;5039903;28;20045;-88
2023/10/30 06:26:32;;;;;;;3.75;1.17;;;10.90;99.90;;;;;;5050882;28;20049;-88
2023/10/30 06:28:58;;;;;;;3.42;0.85;;;10.90;99.90;;;;;;5039266;28;20044;-88
2023/10/30 06:31:24;;;;;;;3.40;1.00;;;10.90;99.90;;;;;;5068303;28;20043;-87
2023/10/30 06:33:49;;;;;;;7.35;1.95;;;10.90;99.90;;;;;;5067261;28;20044;-88
2023/10/30 06:36:15;;;;;;;10.93;1.45;;;10.90;99.90;;;;;;5044118;28;20044;-87
2023/10/30 06:38:41;;;;;;;7.53;1.63;;;10.90;99.90;;;;;;5072802;28;20046;-87
2023/10/30 06:41:07;;;;;;;7.25;1.17;;;10.90;99.90;;;;;;5039992;28;20103;-87
2023/10/30 06:43:32;;;;;;;6.78;1.05;;;11.00;99.90;;;;;;5063104;28;20041;-87
2023/10/30 06:46:03;;;;;;;5.97;1.10;;;11.00;99.90;;;;;;5055300;28;20055;-86
2023/10/30 06:48:28;;;;;;;9.90;1.80;;;11.00;99.90;;;;;;5053924;28;20051;-88
2023/10/30 06:50:54;;;;;;;6.88;1.08;;;11.00;99.90;;;;;;5034801;28;20120;-87
2023/10/30 06:53:20;;;;;;;6.28;1.00;;;11.00;99.90;;;;;;5059936;28;20539;-87
2023/10/30 06:55:46;;;;;;;2.00;0.70;;;11.00;99.90;;;;;;5054747;28;20629;-88
2023/10/30 06:58:11;;;;;;;4.63;1.08;;;11.00;99.90;;;;;;5055463;28;20407;-88
2023/10/30 07:00:37;;;;;;;4.72;1.75;;;11.00;99.90;;;;;;5054205;28;20045;-88
2023/10/30 07:03:03;;;;;;;12.23;2.78;;;11.00;99.90;;;;;;5039753;28;20037;-88
2023/10/30 07:05:29;;;;;;;6.63;1.40;;;11.10;99.90;;;;;;5052532;28;20037;-88
2023/10/30 07:07:54;;;;;;;15.13;3.50;;;11.10;99.90;;;;;;5063152;28;20493;-87
2023/10/30 07:10:20;;;;;;;7.25;1.02;;;11.20;99.90;;;;;;5070491;28;20551;-88
2023/10/30 07:12:46;;;;;;;6.65;1.30;;;11.10;99.90;;;;;;5071050;28;20048;-86
2023/10/30 07:15:11;;;;;;;7.38;1.33;;;11.10;99.90;;;;;;5043532;28;20041;-87
2023/10/30 07:17:37;;;;;;;6.72;1.17;;;11.10;99.90;;;;;;5042555;28;20124;-87
2023/10/30 07:20:06;;;;;;;3.80;1.30;;;11.10;99.90;;;;;;5036193;28;20037;-87
2023/10/30 07:22:31;;;;;;;3.38;0.93;;;11.10;99.90;;;;;;5046535;28;20051;-88
2023/10/30 07:24:57;;;;;;;5.85;1.38;;;11.10;99.90;;;;;;5051291;28;20116;-88
2023/10/30 07:27:23;;;;;;;9.50;1.75;;;11.10;99.90;;;;;;5052331;28;20091;-88
2023/10/30 07:29:48;;;;;;;4.03;0.90;;;11.10;99.90;;;;;;5034718;28;20049;-88
2023/10/30 07:32:14;;;;;;;4.63;1.20;;;11.20;99.90;;;;;;5041346;28;20051;-87
2023/10/30 07:34:44;;;;;;;6.47;2.20;;;11.20;99.90;;;;;;5037032;28;20044;-88
2023/10/30 07:37:10;;;;;;;2.20;0.63;;;11.20;99.90;;;;;;5053881;28;20040;-88
2023/10/30 07:39:35;;;;;;;3.67;1.05;;;11.20;99.90;;;;;;5054718;28;20496;-88
2023/10/30 07:42:01;;;;;;;8.27;1.63;;;11.20;99.90;;;;;;5071039;28;20046;-88
2023/10/30 07:44:27;;;;;;;4.40;1.05;;;11.30;99.90;;;;;;5062023;28;20595;-88
2023/10/30 07:46:53;;;;;;;4.95;1.52;;;11.20;99.90;;;;;;5047770;28;20112;-88
2023/10/30 07:49:19;;;;;;;8.00;1.30;;;11.30;99.90;;;;;;5071023;28;20510;-88
2023/10/30 07:51:45;;;;;;;6.57;1.30;;;11.30;99.90;;;;;;5054200;28;20072;-88
2023/10/30 07:54:11;;;;;;;8.75;1.52;;;11.40;99.90;;;;;;5054860;28;20068;-88
2023/10/30 07:56:37;;;;;;;5.85;1.38;;;11.40;99.90;;;;;;5068233;28;20074;-88
2023/10/30 07:59:06;;;;;;;11.50;1.35;;;11.40;99.90;;;;;;5039737;28;20415;-87
2023/10/30 08:01:33;;;;;;;6.13;2.00;;;11.40;99.90;;;;;;5052238;28;20059;-88
2023/10/30 08:03:59;;;;;;;11.55;0.93;;;11.50;99.90;;;;;;5034294;28;20421;-88
2023/10/30 08:06:25;;;;;;;5.60;1.02;;;11.50;99.90;;;;;;5051262;28;20044;-88
2023/10/30 08:08:52;;;;;;;5.82;1.75;;;11.60;99.90;;;;;;5055177;28;20044;-88
2023/10/30 08:11:18;;;;;;;9.55;2.85;;;11.60;99.90;;;;;;5069902;28;20067;-88
2023/10/30 08:13:43;;;;;;;9.55;1.40;;;11.60;99.90;;;;;;5053811;28;20040;-88
2023/10/30 08:16:10;;;;;;;7.03;1.38;;;11.70;99.90;;;;;;5052291;28;20048;-88
2023/10/30 08:18:36;;;;;;;6.93;1.20;;;11.70;99.90;;;;;;5052999;28;20040;-88
2023/10/30 08:21:02;;;;;;;6.80;1.38;;;11.70;99.90;;;;;;5053870;28;20123;-87
2023/10/30 08:23:28;;;;;;;4.50;1.27;;;11.70;99.90;;;;;;5053600;28;20540;-87
2023/10/30 08:25:54;;;;;;;2.38;0.90;;;11.80;99.90;;;;;;5070766;28;20043;-88
2023/10/30 08:28:19;;;;;;;7.53;1.25;;;11.80;99.90;;;;;;5054086;28;20484;-88
2023/10/30 08:30:45;;;;;;;9.18;1.23;;;11.80;99.90;;;;;;5070292;28;20051;-88
2023/10/30 08:33:11;;;;;;;8.55;1.23;;;11.90;99.90;;;;;;5053464;28;20033;-88
2023/10/30 08:35:36;;;;;;;8.52;1.40;;;11.90;99.90;;;;;;5053557;28;20043;-88
2023/10/30 08:38:03;;;;;;;8.60;1.73;;;12.00;99.90;;;;;;5054050;28;20040;-88
2023/10/30 08:40:29;;;;;;;5.53;1.10;;;12.00;99.90;;;;;;5053316;28;20119;-88
2023/10/30 08:42:54;;;;;;;6.28;1.52;;;12.10;99.90;;;;;;5053416;28;20132;-88
2023/10/30 08:45:21;;;;;;;13.68;2.80;;;12.10;99.90;;;;;;5053281;28;20507;-88
2023/10/30 08:47:47;;;;;;;8.57;2.00;;;12.20;99.90;;;;;;5053115;28;20400;-89
2023/10/30 08:50:12;;;;;;;7.53;2.17;;;12.30;99.90;;;;;;5053145;28;20511;-88
2023/10/30 08:52:39;;;;;;;6.82;1.83;;;12.30;99.90;;;;;;5069693;28;20086;-89
2023/10/30 08:55:05;;;;;;;16.38;3.60;;;12.40;99.90;;;;;;5051816;28;20071;-89
2023/10/30 08:57:31;;;;;;;5.03;1.10;;;12.50;99.90;;;;;;5053443;28;20044;-89
2023/10/30 08:59:56;;;;;;;3.22;0.57;;;12.50;99.90;;;;;;5048552;28;20047;-89
2023/10/30 09:02:22;;;;;;;6.68;1.38;;;12.50;99.90;;;;;;5051185;28;20485;-89
2023/10/30 09:04:47;;;;;;;9.52;2.88;;;12.60;99.90;;;;;;5052601;28;20088;-89
2023/10/30 09:07:13;;;;;;;9.02;1.52;;;12.60;99.90;;;;;;5051112;28;20518;-89
2023/10/30 09:09:39;;;;;;;10.10;1.30;;;12.70;99.90;;;;;;5054483;28;20045;-89
2023/10/30 09:12:05;;;;;;;14.15;3.13;;;12.80;99.90;;;;;;5070037;28;20040;-89
2023/10/30 09:14:31;;;;;;;4.93;0.90;;;12.90;99.90;;;;;;5071058;28;20032;-88
2023/10/30 09:16:57;;;;;;;5.47;1.45;;;12.90;99.90;;;;;;5069887;28;20047;-89
2023/10/30 09:19:22;;;;;;;12.52;3.10;;;12.90;99.90;;;;;;5045035;28;20775;-89
2023/10/30 09:21:48;;;;;;;11.57;2.17;;;13.00;99.90;;;;;;5057713;28;20116;-89
2023/10/30 09:24:14;;;;;;;4.78;0.70;;;13.00;99.90;;;;;;5048631;28;20039;-89
2023/10/30 09:26:39;;;;;;;8.15;1.50;;;13.00;99.90;;;;;;5051935;28;20036;-89
2023/10/30 09:29:05;;;;;;;12.80;3.10;;;13.00;99.90;;;;;;5052428;28;20052;-89
2023/10/30 09:31:32;;;;;;;13.57;3.00;;;13.00;99.90;;;;;;5042677;28;20041;-89
2023/10/30 09:33:58;;;;;;;9.90;1.63;;;13.00;99.90;;;;;;5063493;28;20097;-89
2023/10/30 09:36:24;;;;;;;9.40;1.48;;;13.00;99.90;;;;;;5051961;28;20148;-89
2023/10/30 09:38:50;;;;;;;10.65;1.85;;;12.90;99.90;;;;;;5068479;28;20056;-89
2023/10/30 09:41:19;;;;;;;8.10;1.20;;;12.90;99.90;;;;;;5068451;28;20040;-89
2023/10/30 09:43:48;;;;;;;3.45;0.98;;;13.00;99.90;;;;;;5058042;28;20131;-89
2023/10/30 09:46:16;;;;;;;12.65;3.30;;;13.10;99.90;;;;;;5064726;28;20115;-88
2023/10/30 09:48:44;;;;;;;5.95;1.45;;;13.20;99.90;;;;;;5035670;28;20586;-88
2023/10/30 09:51:10;;;;;;;5.03;1.60;;;13.20;99.90;;;;;;5037154;28;20044;-88
2023/10/30 09:53:38;;;;;;;9.10;1.42;;;13.20;99.90;;;;;;5050886;28;20614;-88
2023/10/30 09:56:06;;;;;;;14.00;3.08;;;13.20;99.90;;;;;;5070148;28;20047;-88
2023/10/30 09:58:33;;;;;;;6.85;1.58;;;13.20;99.90;;;;;;5067603;28;20115;-88
2023/10/30 10:00:59;;;;;;;9.68;1.65;;;13.20;99.90;;;;;;5032843;28;20087;-89
2023/10/30 10:03:25;;;;;;;6.53;1.92;;;13.20;99.90;;;;;;5048892;28;20125;-88
2023/10/30 10:05:58;;;;;;;13.57;2.80;;;13.20;99.90;;;;;;5049854;28;20082;-89
2023/10/30 10:08:25;;;;;;;7.13;1.70;;;13.30;99.90;;;;;;5036420;28;20041;-89
2023/10/30 10:11:01;;;;;;;7.50;1.33;;;13.30;99.90;;;;;;5044132;28;20468;-89
2023/10/30 10:13:33;;;;;;;6.20;1.20;;;13.40;99.90;;;;;;5053065;28;20102;-89
2023/10/30 10:16:00;;;;;;;13.73;3.40;;;13.50;99.90;;;;;;5059284;28;20095;-89
2023/10/30 10:18:31;;;;;;;16.20;3.63;;;13.70;99.90;;;;;;5056655;28;20040;-89
2023/10/30 10:21:08;;;;;;;6.35;0.88;;;13.90;99.90;;;;;;5043054;28;20037;-89
2023/10/30 10:23:34;;;;;;;12.82;3.10;;;14.00;99.90;;;;;;5054475;28;20051;-89
2023/10/30 10:26:05;;;;;;;7.38;1.17;;;14.20;99.90;;;;;;5073321;28;20037;-89
2023/10/30 10:28:32;;;;;;;5.00;1.10;;;14.30;99.90;;;;;;5072979;28;20044;-89
2023/10/30 10:30:58;;;;;;;3.72;0.75;;;14.30;99.90;;;;;;5071816;28;20089;-89
2023/10/30 10:33:29;;;;;;;6.88;1.67;;;14.20;99.90;;;;;;5074236;28;20041;-89
2023/10/30 10:36:01;;;;;;;12.32;2.92;;;14.20;99.90;;;;;;5072782;28;20056;-89
2023/10/30 10:38:27;;;;;;;12.68;2.63;;;14.10;99.90;;;;;;5054416;28;20060;-89
2023/10/30 10:40:54;;;;;;;11.68;1.65;;;14.30;99.90;;;;;;5057103;28;20072;-89
2023/10/30 10:43:21;;;;;;;9.70;1.20;;;14.30;99.90;;;;;;5056673;28;20069;-89
2023/10/30 10:45:54;;;;;;;12.40;1.38;;;14.30;99.90;;;;;;5035626;28;20037;-90
2023/10/30 10:48:21;;;;;;;8.93;1.42;;;14.40;99.90;;;;;;5062327;28;20048;-89
2023/10/30 10:50:47;;;;;;;5.88;1.83;;;14.40;99.90;;;;;;5060665;28;20044;-89
2023/10/30 10:53:16;;;;;;;8.07;1.48;;;14.30;99.90;;;;;;5051985;28;20191;-89
2023/10/30 10:55:44;;;;;;;12.63;2.65;;;14.20;99.90;;;;;;5072203;28;20052;-89
2023/10/30 10:58:38;;;;;;;13.57;2.72;;;14.20;99.90;;;;;;5053840;28;20036;-89
2023/10/30 11:01:06;;;;;;;10.95;2.75;;;14.20;99.90;;;;;;5047291;28;20055;-90
2023/10/30 11:03:32;;;;;;;13.13;3.03;;;14.10;99.90;;;;;;5050232;28;20591;-89
2023/10/30 11:05:58;;;;;;;8.07;1.50;;;14.10;99.90;;;;;;5034070;28;20041;-89
2023/10/30 11:08:36;;;;;;;13.90;3.00;;;14.10;99.90;;;;;;5060922;28;20037;-90
2023/10/30 11:11:18;;;;;;;4.78;1.35;;;14.20;99.90;;;;;;5054225;28;20028;-89
2023/10/30 11:14:42;;;;;;;10.63;1.98;;;14.20;99.90;;;;;;5071969;28;20550;-90
2023/10/30 11:17:07;;;;;;;13.55;3.00;;;14.20;99.90;;;;;;5039118;28;20144;-90
2023/10/30 11:19:37;;;;;;;4.32;1.20;;;14.40;99.90;;;;;;5036372;28;20132;-89
2023/10/30 11:22:02;;;;;;;9.55;1.70;;;14.30;99.90;;;;;;5047796;28;20049;-89
2023/10/30 11:24:40;;;;;;;8.55;1.70;;;14.30;99.90;;;;;;5026504;28;20044;-89
2023/10/30 11:27:27;;;;;;;7.45;2.05;;;14.40;99.90;;;;;;5031464;28;20641;-90
2023/10/30 11:29:56;;;;;;;9.00;1.40;;;14.40;99.90;;;;;;5030879;28;20037;-90
2023/10/30 11:32:23;;;;;;;8.57;1.30;;;14.40;99.90;;;;;;5053501;28;20044;-90
2023/10/30 11:34:49;;;;;;;10.23;1.95;;;14.50;99.90;;;;;;5046087;28;20049;-90
2023/10/30 11:37:17;;;;;;;6.28;1.33;;;14.50;99.90;;;;;;5047097;28;20582;-89
2023/10/30 11:39:48;;;;;;;6.80;1.42;;;14.50;99.90;;;;;;5022376;28;20051;-89
2023/10/30 11:42:25;;;;;;;9.57;1.83;;;14.60;99.90;;;;;;5038346;28;20123;-90
2023/10/30 11:44:53;;;;;;;11.23;3.20;;;14.60;99.90;;;;;;5062868;28;20040;-89
2023/10/30 11:47:19;;;;;;;5.28;1.15;;;14.70;99.90;;;;;;5038058;28;20052;-89
2023/10/30 11:49:45;;;;;;;7.22;1.73;;;14.80;99.90;;;;;;5072954;28;20411;-90
2023/10/30 11:52:13;;;;;;;17.45;1.98;;;14.80;99.90;;;;;;5064719;28;20521;-90
2023/10/30 11:54:44;;;;;;;12.27;3.08;;;14.90;99.90;;;;;;5045563;28;20048;-90
2023/10/30 11:57:11;;;;;;;10.13;1.60;;;15.10;99.90;;;;;;5072670;28;20044;-89
2023/10/30 11:59:37;;;;;;;12.75;3.08;;;15.10;99.90;;;;;;5068575;28;20119;-89
2023/10/30 12:02:05;;;;;;;12.73;2.97;;;15.20;99.90;;;;;;5035156;28;20083;-89
2023/10/30 12:04:32;;;;;;;17.15;3.22;;;15.20;99.90;;;;;;5051840;28;20492;-89
2023/10/30 12:06:58;;;;;;;8.65;1.30;;;15.40;99.90;;;;;;5051966;28;20493;-90
2023/10/30 12:09:25;;;;;;;7.93;1.70;;;15.40;99.90;;;;;;5034378;28;20072;-90
2023/10/30 12:11:52;;;;;;;11.85;2.60;;;15.50;99.90;;;;;;5056224;28;20071;-89
2023/10/30 12:14:19;;;;;;;9.50;1.75;;;15.50;99.90;;;;;;5037933;28;20526;-90
2023/10/30 12:16:52;;;;;;;11.50;1.75;;;15.50;99.90;;;;;;5048580;28;20052;-89
2023/10/30 12:19:21;;;;;;;10.90;1.95;;;15.50;99.90;;;;;;5048528;28;20036;-89
2023/10/30 12:21:48;;;;;;;14.50;2.80;;;15.50;99.90;;;;;;5048989;28;20072;-90
2023/10/30 12:24:22;;;;;;;6.20;1.60;;;15.60;99.90;;;;;;5051172;28;20451;-89
2023/10/30 12:26:48;;;;;;;5.95;1.48;;;15.60;99.90;;;;;;5053932;28;20128;-89
2023/10/30 12:29:24;;;;;;;11.02;1.58;;;15.60;99.90;;;;;;5058546;28;20045;-87
2023/10/30 12:32:11;;;;;;;13.27;2.75;;;15.60;99.90;;;;;;5064401;28;20573;-90
2023/10/30 12:34:37;;;;;;;10.70;2.10;;;15.70;99.90;;;;;;5052820;28;20033;-90
2023/10/30 12:37:25;;;;;;;7.53;1.52;;;15.70;99.90;;;;;;5061589;28;20043;-89
2023/10/30 12:40:04;;;;;;;12.45;2.40;;;15.70;99.90;;;;;;5034482;28;20041;-90
2023/10/30 12:42:48;;;;;;;12.95;3.10;;;15.90;99.90;;;;;;5035155;28;20075;-90
2023/10/30 12:45:18;;;;;;;14.25;3.40;;;16.00;99.90;;;;;;5030533;28;20083;-90